sensor_id;sensor_type;location;lat;lon;timestamp;pressure;altitude;pressure_sealevel;temperature;humidity
46379;BME280;32084;42.254;22.744;2023-09-18T00:00:51;95676.03;;;16.22;100.00
46379;BME280;32084;42.254;22.744;2023-09-18T00:03:18;95675.13;;;16.30;100.00
46379;BME280;32084;42.254;22.744;2023-09-18T00:05:45;95668.59;;;16.24;100.00
46379;BME280;32084;42.254;22.744;2023-09-18T00:08:11;95671.31;;;16.39;100.00
46379;BME280;32084;42.254;22.744;2023-09-18T00:10:37;95672.81;;;16.42;100.00
46379;BME280;32084;42.254;22.744;2023-09-18T00:13:03;95667.91;;;16.07;100.00
46379;BME280;32084;42.254;22.744;2023-09-18T00:15:30;95674.41;;;15.98;100.00
46379;BME280;32084;42.254;22.744;2023-09-18T00:17:56;95678.09;;;15.97;100.00
46379;BME280;32084;42.254;22.744;2023-09-18T00:20:22;95671.91;;;16.11;100.00
46379;BME280;32084;42.254;22.744;2023-09-18T00:22:55;95672.22;;;16.16;100.00
46379;BME280;32084;42.254;22.744;2023-09-18T00:25:22;95676.91;;;15.99;100.00
46379;BME280;32084;42.254;22.744;2023-09-18T00:27:48;95672.84;;;16.04;100.00
46379;BME280;32084;42.254;22.744;2023-09-18T00:30:14;95681.84;;;15.96;100.00
46379;BME280;32084;42.254;22.744;2023-09-18T00:32:40;95678.06;;;16.05;100.00
46379;BME280;32084;42.254;22.744;2023-09-18T00:35:06;95684.56;;;16.11;100.00
46379;BME280;32084;42.254;22.744;2023-09-18T00:37:32;95678.09;;;15.97;100.00
46379;BME280;32084;42.254;22.744;2023-09-18T00:39:58;95684.06;;;15.92;100.00
46379;BME280;32084;42.254;22.744;2023-09-18T00:42:25;95680.16;;;15.95;100.00
46379;BME280;32084;42.254;22.744;2023-09-18T00:44:51;95680.16;;;15.95;100.00
46379;BME280;32084;42.254;22.744;2023-09-18T00:47:17;95677.28;;;15.96;100.00
46379;BME280;32084;42.254;22.744;2023-09-18T00:49:44;95684.88;;;15.93;100.00
46379;BME280;32084;42.254;22.744;2023-09-18T00:52:11;95676.66;;;16.09;100.00
46379;BME280;32084;42.254;22.744;2023-09-18T00:54:37;95677.19;;;16.05;100.00
46379;BME280;32084;42.254;22.744;2023-09-18T00:57:04;95678.09;;;15.97;100.00
46379;BME280;32084;42.254;22.744;2023-09-18T00:59:31;95683.31;;;15.98;100.00
46379;BME280;32084;42.254;22.744;2023-09-18T01:01:58;95686.84;;;15.99;100.00
46379;BME280;32084;42.254;22.744;2023-09-18T01:04:25;95690.97;;;16.10;100.00
46379;BME280;32084;42.254;22.744;2023-09-18T01:06:52;95685.28;;;16.05;100.00
46379;BME280;32084;42.254;22.744;2023-09-18T01:09:22;95687.28;;;16.11;100.00
46379;BME280;32084;42.254;22.744;2023-09-18T01:11:59;95689.06;;;16.18;100.00
46379;BME280;32084;42.254;22.744;2023-09-18T01:17:09;95685.75;;;16.08;100.00
46379;BME280;32084;42.254;22.744;2023-09-18T01:22:07;95689.31;;;15.86;100.00
46379;BME280;32084;42.254;22.744;2023-09-18T01:24:34;95687.88;;;15.52;100.00
46379;BME280;32084;42.254;22.744;2023-09-18T01:27:00;95696.31;;;15.49;100.00
46379;BME280;32084;42.254;22.744;2023-09-18T01:29:26;95692.28;;;15.45;100.00
46379;BME280;32084;42.254;22.744;2023-09-18T01:31:53;95684.38;;;15.66;100.00
46379;BME280;32084;42.254;22.744;2023-09-18T01:34:19;95692.16;;;15.61;100.00
46379;BME280;32084;42.254;22.744;2023-09-18T01:36:47;95691.25;;;15.69;100.00
46379;BME280;32084;42.254;22.744;2023-09-18T01:39:13;95690.69;;;15.81;100.00
46379;BME280;32084;42.254;22.744;2023-09-18T01:41:40;95692.44;;;15.74;100.00
46379;BME280;32084;42.254;22.744;2023-09-18T01:44:06;95698.59;;;15.60;100.00
46379;BME280;32084;42.254;22.744;2023-09-18T01:46:32;95693.44;;;15.50;100.00
46379;BME280;32084;42.254;22.744;2023-09-18T01:49:02;95691.91;;;15.48;100.00
46379;BME280;32084;42.254;22.744;2023-09-18T01:51:29;95698.19;;;15.40;100.00
46379;BME280;32084;42.254;22.744;2023-09-18T01:53:55;95699.97;;;15.56;100.00
46379;BME280;32084;42.254;22.744;2023-09-18T01:56:22;95700.44;;;15.59;100.00
46379;BME280;32084;42.254;22.744;2023-09-18T01:58:49;95701.88;;;15.70;100.00
46379;BME280;32084;42.254;22.744;2023-09-18T02:01:15;95706.53;;;15.85;100.00
46379;BME280;32084;42.254;22.744;2023-09-18T02:03:41;95708.63;;;15.97;100.00
46379;BME280;32084;42.254;22.744;2023-09-18T02:06:07;95705.69;;;16.07;100.00
46379;BME280;32084;42.254;22.744;2023-09-18T02:08:34;95704.25;;;15.96;100.00
46379;BME280;32084;42.254;22.744;2023-09-18T02:11:00;95711.84;;;15.93;100.00
46379;BME280;32084;42.254;22.744;2023-09-18T02:13:26;95708.97;;;15.94;100.00
46379;BME280;32084;42.254;22.744;2023-09-18T02:15:53;95704.47;;;16.10;100.00
46379;BME280;32084;42.254;22.744;2023-09-18T02:18:20;95705.59;;;16.15;100.00
46379;BME280;32084;42.254;22.744;2023-09-18T02:20:46;95699.19;;;16.16;100.00
46379;BME280;32084;42.254;22.744;2023-09-18T02:23:15;95702.53;;;16.18;100.00
46379;BME280;32084;42.254;22.744;2023-09-18T02:25:41;95701.34;;;16.21;100.00
46379;BME280;32084;42.254;22.744;2023-09-18T02:28:07;95697.16;;;16.18;100.00
46379;BME280;32084;42.254;22.744;2023-09-18T02:30:33;95708.94;;;16.17;100.00
46379;BME280;32084;42.254;22.744;2023-09-18T02:32:59;95701.81;;;16.25;100.00
46379;BME280;32084;42.254;22.744;2023-09-18T02:35:25;95715.81;;;16.20;100.00
46379;BME280;32084;42.254;22.744;2023-09-18T02:37:52;95702.91;;;16.15;100.00
46379;BME280;32084;42.254;22.744;2023-09-18T02:40:18;95696.84;;;16.13;100.00
46379;BME280;32084;42.254;22.744;2023-09-18T02:42:44;95702.91;;;16.15;100.00
46379;BME280;32084;42.254;22.744;2023-09-18T02:45:10;95701.88;;;16.16;100.00
46379;BME280;32084;42.254;22.744;2023-09-18T02:47:36;95693.97;;;16.15;100.00
46379;BME280;32084;42.254;22.744;2023-09-18T02:50:06;95701.88;;;16.16;100.00
46379;BME280;32084;42.254;22.744;2023-09-18T02:52:33;95703.56;;;16.17;100.00
46379;BME280;32084;42.254;22.744;2023-09-18T02:54:59;95704.50;;;16.25;100.00
46379;BME280;32084;42.254;22.744;2023-09-18T02:57:24;95703.03;;;16.22;100.00
46379;BME280;32084;42.254;22.744;2023-09-18T02:59:51;95701.25;;;16.14;100.00
46379;BME280;32084;42.254;22.744;2023-09-18T03:02:17;95705.19;;;16.04;100.00
46379;BME280;32084;42.254;22.744;2023-09-18T03:04:42;95706.53;;;15.85;100.00
46379;BME280;32084;42.254;22.744;2023-09-18T03:07:08;95698.97;;;15.80;100.00
46379;BME280;32084;42.254;22.744;2023-09-18T03:09:34;95696.72;;;15.92;100.00
46379;BME280;32084;42.254;22.744;2023-09-18T03:12:01;95694.66;;;15.94;100.00
46379;BME280;32084;42.254;22.744;2023-09-18T03:14:27;95695.38;;;15.88;100.00
46379;BME280;32084;42.254;22.744;2023-09-18T03:16:53;95702.31;;;15.82;100.00
46379;BME280;32084;42.254;22.744;2023-09-18T03:19:19;95692.25;;;15.76;100.00
46379;BME280;32084;42.254;22.744;2023-09-18T03:21:47;95694.97;;;15.76;100.00
46379;BME280;32084;42.254;22.744;2023-09-18T03:24:13;95690.44;;;15.45;100.00
46379;BME280;32084;42.254;22.744;2023-09-18T03:26:39;95701.44;;;15.35;100.00
46379;BME280;32084;42.254;22.744;2023-09-18T03:29:05;95698.03;;;15.41;100.00
46379;BME280;32084;42.254;22.744;2023-09-18T03:31:31;95695.16;;;15.43;100.00
46379;BME280;32084;42.254;22.744;2023-09-18T03:33:57;95694.72;;;15.31;100.00
46379;BME280;32084;42.254;22.744;2023-09-18T03:36:23;95700.41;;;15.36;100.00
46379;BME280;32084;42.254;22.744;2023-09-18T03:38:49;95695.91;;;15.29;100.00
46379;BME280;32084;42.254;22.744;2023-09-18T03:41:15;95701.50;;;15.19;100.00
46379;BME280;32084;42.254;22.744;2023-09-18T03:43:41;95689.06;;;15.18;100.00
46379;BME280;32084;42.254;22.744;2023-09-18T03:46:07;95700.63;;;15.27;100.00
46379;BME280;32084;42.254;22.744;2023-09-18T03:48:33;95700.34;;;15.21;100.00
46379;BME280;32084;42.254;22.744;2023-09-18T03:51:06;95703.53;;;15.17;100.00
46379;BME280;32084;42.254;22.744;2023-09-18T03:53:32;95702.72;;;15.16;100.00
46379;BME280;32084;42.254;22.744;2023-09-18T03:55:59;95695.97;;;15.20;100.00
46379;BME280;32084;42.254;22.744;2023-09-18T03:58:25;95706.00;;;15.27;100.00
46379;BME280;32084;42.254;22.744;2023-09-18T04:00:51;95706.28;;;15.40;100.00
46379;BME280;32084;42.254;22.744;2023-09-18T04:03:17;95701.34;;;15.52;100.00
46379;BME280;32084;42.254;22.744;2023-09-18T04:05:43;95706.84;;;15.58;100.00
46379;BME280;32084;42.254;22.744;2023-09-18T04:08:09;95711.41;;;15.58;100.00
46379;BME280;32084;42.254;22.744;2023-09-18T04:10:35;95703.56;;;15.48;100.00
46379;BME280;32084;42.254;22.744;2023-09-18T04:13:01;95715.06;;;15.34;100.00
46379;BME280;32084;42.254;22.744;2023-09-18T04:15:27;95710.56;;;15.26;100.00
46379;BME280;32084;42.254;22.744;2023-09-18T04:17:56;95722.84;;;15.29;100.00
46379;BME280;32084;42.254;22.744;2023-09-18T04:20:22;95716.78;;;15.35;100.00
46379;BME280;32084;42.254;22.744;2023-09-18T04:23:17;95711.81;;;15.47;100.00
46379;BME280;32084;42.254;22.744;2023-09-18T04:25:37;95719.75;;;15.71;100.00
46379;BME280;32084;42.254;22.744;2023-09-18T04:28:03;95713.25;;;15.89;100.00
46379;BME280;32084;42.254;22.744;2023-09-18T04:30:29;95721.63;;;15.94;100.00
46379;BME280;32084;42.254;22.744;2023-09-18T04:32:55;95713.38;;;15.95;100.00
46379;BME280;32084;42.254;22.744;2023-09-18T04:35:21;95724.50;;;15.92;100.00
46379;BME280;32084;42.254;22.744;2023-09-18T04:37:55;95721.03;;;15.84;100.00
46379;BME280;32084;42.254;22.744;2023-09-18T04:40:21;95728.75;;;15.87;100.00
46379;BME280;32084;42.254;22.744;2023-09-18T04:42:49;95727.38;;;15.91;100.00
46379;BME280;32084;42.254;22.744;2023-09-18T04:45:15;95724.44;;;16.00;100.00
46379;BME280;32084;42.254;22.744;2023-09-18T04:47:41;95719.34;;;16.06;100.00
46379;BME280;32084;42.254;22.744;2023-09-18T04:50:08;95728.91;;;16.08;100.00
46379;BME280;32084;42.254;22.744;2023-09-18T04:52:34;95724.47;;;16.15;100.00
46379;BME280;32084;42.254;22.744;2023-09-18T04:55:00;95725.78;;;16.19;100.00
46379;BME280;32084;42.254;22.744;2023-09-18T04:57:26;95729.75;;;16.32;100.00
46379;BME280;32084;42.254;22.744;2023-09-18T04:59:52;95727.69;;;16.34;100.00
46379;BME280;32084;42.254;22.744;2023-09-18T05:02:18;95723.88;;;16.28;100.00
46379;BME280;32084;42.254;22.744;2023-09-18T05:04:43;95721.09;;;16.36;100.00
46379;BME280;32084;42.254;22.744;2023-09-18T05:07:10;95724.44;;;16.38;100.00
46379;BME280;32084;42.254;22.744;2023-09-18T05:09:35;95728.19;;;16.37;100.00
46379;BME280;32084;42.254;22.744;2023-09-18T05:12:04;95731.06;;;16.36;100.00
46379;BME280;32084;42.254;22.744;2023-09-18T05:14:30;95723.69;;;16.30;100.00
46379;BME280;32084;42.254;22.744;2023-09-18T05:16:56;95730.41;;;16.34;100.00
46379;BME280;32084;42.254;22.744;2023-09-18T05:19:22;95734.03;;;16.41;100.00
46379;BME280;32084;42.254;22.744;2023-09-18T05:21:48;95734.50;;;16.30;100.00
46379;BME280;32084;42.254;22.744;2023-09-18T05:24:14;95739.97;;;16.36;100.00
46379;BME280;32084;42.254;22.744;2023-09-18T05:26:40;95738.31;;;16.35;100.00
46379;BME280;32084;42.254;22.744;2023-09-18T05:29:06;95746.41;;;16.35;100.00
46379;BME280;32084;42.254;22.744;2023-09-18T05:31:32;95744.28;;;16.46;100.00
46379;BME280;32084;42.254;22.744;2023-09-18T05:33:58;95744.75;;;16.49;100.00
46379;BME280;32084;42.254;22.744;2023-09-18T05:36:24;95746.06;;;16.53;100.00
46379;BME280;32084;42.254;22.744;2023-09-18T05:38:50;95750.72;;;16.59;100.00
46379;BME280;32084;42.254;22.744;2023-09-18T05:41:16;95738.91;;;16.61;100.00
46379;BME280;32084;42.254;22.744;2023-09-18T05:43:42;95743.56;;;16.67;100.00
46379;BME280;32084;42.254;22.744;2023-09-18T05:46:08;95751.00;;;16.65;100.00
46379;BME280;32084;42.254;22.744;2023-09-18T05:48:34;95747.97;;;16.68;100.00
46379;BME280;32084;42.254;22.744;2023-09-18T05:51:00;95743.09;;;16.63;100.00
46379;BME280;32084;42.254;22.744;2023-09-18T05:53:26;95742.16;;;16.71;100.00
46379;BME280;32084;42.254;22.744;2023-09-18T05:55:52;95742.81;;;16.73;100.00
46379;BME280;32084;42.254;22.744;2023-09-18T05:58:18;95735.81;;;16.87;100.00
46379;BME280;32084;42.254;22.744;2023-09-18T06:00:47;95740.44;;;17.08;100.00
46379;BME280;32084;42.254;22.744;2023-09-18T06:03:14;95742.56;;;17.27;100.00
46379;BME280;32084;42.254;22.744;2023-09-18T06:05:41;95743.31;;;17.36;100.00
46379;BME280;32084;42.254;22.744;2023-09-18T06:08:07;95748.31;;;17.54;100.00
46379;BME280;32084;42.254;22.744;2023-09-18T06:10:33;95739.38;;;17.53;100.00
46379;BME280;32084;42.254;22.744;2023-09-18T06:13:00;95735.38;;;17.34;100.00
46379;BME280;32084;42.254;22.744;2023-09-18T06:15:30;95732.81;;;17.63;100.00
46379;BME280;32084;42.254;22.744;2023-09-18T06:17:56;95728.69;;;17.67;100.00
46379;BME280;32084;42.254;22.744;2023-09-18T06:20:22;95732.25;;;17.52;100.00
46379;BME280;32084;42.254;22.744;2023-09-18T06:22:48;95738.81;;;17.43;100.00
46379;BME280;32084;42.254;22.744;2023-09-18T06:25:14;95738.19;;;17.78;100.00
46379;BME280;32084;42.254;22.744;2023-09-18T06:27:41;95732.72;;;18.36;100.00
46379;BME280;32084;42.254;22.744;2023-09-18T06:30:08;95729.75;;;18.59;100.00
46379;BME280;32084;42.254;22.744;2023-09-18T06:32:34;95743.97;;;18.89;100.00
46379;BME280;32084;42.254;22.744;2023-09-18T06:35:00;95735.63;;;18.84;100.00
46379;BME280;32084;42.254;22.744;2023-09-18T06:37:26;95736.38;;;19.06;100.00
46379;BME280;32084;42.254;22.744;2023-09-18T06:39:52;95740.84;;;19.20;100.00
46379;BME280;32084;42.254;22.744;2023-09-18T06:42:18;95734.28;;;19.43;100.00
46379;BME280;32084;42.254;22.744;2023-09-18T06:44:45;95734.66;;;20.01;98.80
46379;BME280;32084;42.254;22.744;2023-09-18T06:47:11;95726.97;;;20.45;93.51
46379;BME280;32084;42.254;22.744;2023-09-18T06:49:37;95729.13;;;20.63;92.50
46379;BME280;32084;42.254;22.744;2023-09-18T06:52:03;95738.50;;;20.67;92.65
46379;BME280;32084;42.254;22.744;2023-09-18T06:54:30;95732.84;;;20.95;91.55
46379;BME280;32084;42.254;22.744;2023-09-18T06:56:56;95728.63;;;21.06;91.98
46379;BME280;32084;42.254;22.744;2023-09-18T06:59:22;95732.34;;;21.25;93.86
46379;BME280;32084;42.254;22.744;2023-09-18T07:01:48;95740.69;;;21.37;93.78
46379;BME280;32084;42.254;22.744;2023-09-18T07:04:14;95729.84;;;21.23;90.28
46379;BME280;32084;42.254;22.744;2023-09-18T07:06:40;95734.00;;;21.46;92.09
46379;BME280;32084;42.254;22.744;2023-09-18T07:09:06;95730.16;;;21.60;92.48
46379;BME280;32084;42.254;22.744;2023-09-18T07:11:33;95733.94;;;21.53;89.02
46379;BME280;32084;42.254;22.744;2023-09-18T07:13:59;95735.19;;;21.57;91.51
46379;BME280;32084;42.254;22.744;2023-09-18T07:16:25;95731.56;;;21.70;89.85
46379;BME280;32084;42.254;22.744;2023-09-18T07:18:51;95734.91;;;21.72;88.36
46379;BME280;32084;42.254;22.744;2023-09-18T07:21:17;95741.72;;;21.42;88.11
46379;BME280;32084;42.254;22.744;2023-09-18T07:23:43;95740.72;;;21.23;90.80
46379;BME280;32084;42.254;22.744;2023-09-18T07:26:11;95736.28;;;21.42;92.83
46379;BME280;32084;42.254;22.744;2023-09-18T07:28:37;95738.97;;;21.56;89.88
46379;BME280;32084;42.254;22.744;2023-09-18T07:31:07;95740.34;;;21.72;92.25
46379;BME280;32084;42.254;22.744;2023-09-18T07:33:34;95745.16;;;21.76;89.23
46379;BME280;32084;42.254;22.744;2023-09-18T07:36:00;95743.88;;;21.86;90.74
46379;BME280;32084;42.254;22.744;2023-09-18T07:38:26;95738.97;;;21.94;88.40
46379;BME280;32084;42.254;22.744;2023-09-18T07:40:52;95742.72;;;22.00;85.27
46379;BME280;32084;42.254;22.744;2023-09-18T07:43:18;95741.16;;;22.17;86.94
46379;BME280;32084;42.254;22.744;2023-09-18T07:45:44;95747.28;;;22.45;86.33
46379;BME280;32084;42.254;22.744;2023-09-18T07:48:10;95740.75;;;22.52;89.04
46379;BME280;32084;42.254;22.744;2023-09-18T07:50:36;95743.09;;;22.42;86.21
46379;BME280;32084;42.254;22.744;2023-09-18T07:53:02;95736.94;;;22.53;86.42
46379;BME280;32084;42.254;22.744;2023-09-18T07:55:28;95746.06;;;22.66;86.38
46379;BME280;32084;42.254;22.744;2023-09-18T07:57:55;95741.34;;;22.79;85.76
46379;BME280;32084;42.254;22.744;2023-09-18T08:00:21;95744.00;;;22.61;81.70
46379;BME280;32084;42.254;22.744;2023-09-18T08:02:48;95739.16;;;22.63;84.50
46379;BME280;32084;42.254;22.744;2023-09-18T08:05:18;95731.88;;;22.82;82.49
46379;BME280;32084;42.254;22.744;2023-09-18T08:07:44;95730.88;;;23.20;83.13
46379;BME280;32084;42.254;22.744;2023-09-18T08:10:12;95738.03;;;23.39;83.09
46379;BME280;32084;42.254;22.744;2023-09-18T08:12:38;95738.44;;;23.43;78.12
46379;BME280;32084;42.254;22.744;2023-09-18T08:15:05;95731.44;;;23.47;79.56
46379;BME280;32084;42.254;22.744;2023-09-18T08:17:32;95730.25;;;23.43;78.03
46379;BME280;32084;42.254;22.744;2023-09-18T08:19:58;95717.63;;;23.24;77.95
46379;BME280;32084;42.254;22.744;2023-09-18T08:22:24;95719.44;;;23.48;77.58
46379;BME280;32084;42.254;22.744;2023-09-18T08:24:50;95717.03;;;23.40;80.42
46379;BME280;32084;42.254;22.744;2023-09-18T08:27:18;95718.50;;;23.73;78.26
46379;BME280;32084;42.254;22.744;2023-09-18T08:29:45;95721.53;;;24.02;75.72
46379;BME280;32084;42.254;22.744;2023-09-18T08:32:11;95714.84;;;23.97;77.55
46379;BME280;32084;42.254;22.744;2023-09-18T08:34:37;95713.84;;;23.80;76.40
46379;BME280;32084;42.254;22.744;2023-09-18T08:37:03;95711.84;;;23.87;78.73
46379;BME280;32084;42.254;22.744;2023-09-18T08:39:29;95712.69;;;23.88;74.65
46379;BME280;32084;42.254;22.744;2023-09-18T08:41:58;95704.59;;;24.11;75.22
46379;BME280;32084;42.254;22.744;2023-09-18T08:44:26;95707.13;;;24.25;74.05
46379;BME280;32084;42.254;22.744;2023-09-18T08:46:53;95705.44;;;24.24;72.17
46379;BME280;32084;42.254;22.744;2023-09-18T08:49:20;95707.75;;;24.39;74.64
46379;BME280;32084;42.254;22.744;2023-09-18T08:51:49;95710.25;;;24.40;74.11
46379;BME280;32084;42.254;22.744;2023-09-18T08:54:15;95702.00;;;24.59;74.26
46379;BME280;32084;42.254;22.744;2023-09-18T08:56:41;95694.09;;;24.50;70.73
46379;BME280;32084;42.254;22.744;2023-09-18T08:59:07;95704.88;;;24.45;70.54
46379;BME280;32084;42.254;22.744;2023-09-18T09:01:33;95697.59;;;24.15;66.73
46379;BME280;32084;42.254;22.744;2023-09-18T09:03:59;95689.94;;;24.36;70.53
46379;BME280;32084;42.254;22.744;2023-09-18T09:06:26;95689.03;;;24.54;69.49
46379;BME280;32084;42.254;22.744;2023-09-18T09:08:52;95684.69;;;24.34;70.21
46379;BME280;32084;42.254;22.744;2023-09-18T09:11:18;95684.28;;;24.61;72.00
46379;BME280;32084;42.254;22.744;2023-09-18T09:13:45;95689.28;;;24.88;69.62
46379;BME280;32084;42.254;22.744;2023-09-18T09:16:12;95680.00;;;24.89;69.23
46379;BME280;32084;42.254;22.744;2023-09-18T09:18:48;95681.19;;;24.93;69.62
46379;BME280;32084;42.254;22.744;2023-09-18T09:21:14;95678.56;;;24.98;68.65
46379;BME280;32084;42.254;22.744;2023-09-18T09:23:50;95681.09;;;24.76;68.40
46379;BME280;32084;42.254;22.744;2023-09-18T09:26:20;95674.31;;;24.67;70.36
46379;BME280;32084;42.254;22.744;2023-09-18T09:28:46;95665.38;;;24.83;71.09
46379;BME280;32084;42.254;22.744;2023-09-18T09:31:22;95672.41;;;24.91;68.90
46379;BME280;32084;42.254;22.744;2023-09-18T09:33:51;95673.34;;;25.08;68.21
46379;BME280;32084;42.254;22.744;2023-09-18T09:36:22;95661.06;;;25.11;67.22
46379;BME280;32084;42.254;22.744;2023-09-18T09:38:54;95663.94;;;24.92;67.50
46379;BME280;32084;42.254;22.744;2023-09-18T09:41:20;95655.75;;;25.04;68.05
46379;BME280;32084;42.254;22.744;2023-09-18T09:43:47;95654.88;;;25.04;69.16
46379;BME280;32084;42.254;22.744;2023-09-18T09:46:15;95642.19;;;24.86;68.17
46379;BME280;32084;42.254;22.744;2023-09-18T09:49:00;95648.94;;;25.07;64.51
46379;BME280;32084;42.254;22.744;2023-09-18T09:51:27;95653.34;;;25.31;65.54
46379;BME280;32084;42.254;22.744;2023-09-18T09:53:54;95651.38;;;25.56;67.90
46379;BME280;32084;42.254;22.744;2023-09-18T09:56:20;95647.75;;;25.67;64.35
46379;BME280;32084;42.254;22.744;2023-09-18T09:59:02;95642.28;;;25.67;63.93
46379;BME280;32084;42.254;22.744;2023-09-18T10:01:30;95654.09;;;25.56;64.28
46379;BME280;32084;42.254;22.744;2023-09-18T10:03:56;95647.19;;;25.53;64.05
46379;BME280;32084;42.254;22.744;2023-09-18T10:06:24;95636.63;;;25.45;64.33
46379;BME280;32084;42.254;22.744;2023-09-18T10:08:51;95633.38;;;25.60;65.44
46379;BME280;32084;42.254;22.744;2023-09-18T10:11:19;95630.44;;;25.78;62.56
46379;BME280;32084;42.254;22.744;2023-09-18T10:16:13;95624.66;;;25.34;62.77
46379;BME280;32084;42.254;22.744;2023-09-18T10:24:04;95607.28;;;25.40;65.43
46379;BME280;32084;42.254;22.744;2023-09-18T10:26:35;95606.06;;;25.48;62.36
46379;BME280;32084;42.254;22.744;2023-09-18T10:29:04;95602.44;;;25.59;62.17
46379;BME280;32084;42.254;22.744;2023-09-18T10:31:34;95602.44;;;25.76;61.75
46379;BME280;32084;42.254;22.744;2023-09-18T10:34:03;95609.91;;;25.64;63.17
46379;BME280;32084;42.254;22.744;2023-09-18T10:36:30;95604.97;;;25.49;60.99
46379;BME280;32084;42.254;22.744;2023-09-18T10:38:57;95598.25;;;25.28;60.93
46379;BME280;32084;42.254;22.744;2023-09-18T10:41:25;95598.63;;;25.20;61.79
46379;BME280;32084;42.254;22.744;2023-09-18T10:43:54;95586.63;;;25.49;63.15
46379;BME280;32084;42.254;22.744;2023-09-18T10:46:24;95585.78;;;25.78;65.83
46379;BME280;32084;42.254;22.744;2023-09-18T10:48:51;95581.09;;;25.90;64.09
46379;BME280;32084;42.254;22.744;2023-09-18T10:51:21;95578.28;;;26.02;64.14
46379;BME280;32084;42.254;22.744;2023-09-18T10:53:47;95572.56;;;26.03;65.23
46379;BME280;32084;42.254;22.744;2023-09-18T10:56:14;95579.69;;;26.04;62.30
46379;BME280;32084;42.254;22.744;2023-09-18T10:58:41;95574.09;;;25.82;59.45
46379;BME280;32084;42.254;22.744;2023-09-18T11:01:10;95573.22;;;25.94;62.15
46379;BME280;32084;42.254;22.744;2023-09-18T11:03:37;95562.34;;;26.16;62.23
46379;BME280;32084;42.254;22.744;2023-09-18T11:06:06;95556.53;;;26.29;62.11
46379;BME280;32084;42.254;22.744;2023-09-18T11:09:19;95565.41;;;26.36;61.90
46379;BME280;32084;42.254;22.744;2023-09-18T11:11:19;95554.78;;;26.40;62.70
46379;BME280;32084;42.254;22.744;2023-09-18T11:13:47;95554.63;;;26.46;61.67
46379;BME280;32084;42.254;22.744;2023-09-18T11:16:15;95550.88;;;26.36;62.23
46379;BME280;32084;42.254;22.744;2023-09-18T11:18:41;95555.63;;;26.23;63.34
46379;BME280;32084;42.254;22.744;2023-09-18T11:21:11;95550.72;;;26.25;62.53
46379;BME280;32084;42.254;22.744;2023-09-18T11:23:38;95542.91;;;26.17;62.80
46379;BME280;32084;42.254;22.744;2023-09-18T11:26:09;95542.19;;;26.22;63.02
46379;BME280;32084;42.254;22.744;2023-09-18T11:28:35;95540.09;;;26.12;61.86
46379;BME280;32084;42.254;22.744;2023-09-18T11:31:03;95538.44;;;26.11;62.38
46379;BME280;32084;42.254;22.744;2023-09-18T11:33:33;95533.63;;;26.18;60.57
46379;BME280;32084;42.254;22.744;2023-09-18T11:36:07;95524.88;;;26.21;62.36
46379;BME280;32084;42.254;22.744;2023-09-18T11:38:34;95535.78;;;26.16;62.73
46379;BME280;32084;42.254;22.744;2023-09-18T11:41:18;95531.63;;;26.14;62.12
46379;BME280;32084;42.254;22.744;2023-09-18T11:43:45;95527.31;;;26.18;62.80
46379;BME280;32084;42.254;22.744;2023-09-18T11:46:11;95522.81;;;26.12;59.97
46379;BME280;32084;42.254;22.744;2023-09-18T11:48:38;95524.16;;;26.09;62.74
46379;BME280;32084;42.254;22.744;2023-09-18T11:51:07;95524.41;;;26.07;60.07
46379;BME280;32084;42.254;22.744;2023-09-18T11:53:37;95522.69;;;26.01;59.99
46379;BME280;32084;42.254;22.744;2023-09-18T11:56:11;95519.69;;;26.03;59.02
46379;BME280;32084;42.254;22.744;2023-09-18T11:58:46;95515.94;;;26.09;59.88
46379;BME280;32084;42.254;22.744;2023-09-18T12:01:13;95513.34;;;26.19;63.64
46379;BME280;32084;42.254;22.744;2023-09-18T12:03:41;95501.56;;;26.19;61.45
46379;BME280;32084;42.254;22.744;2023-09-18T12:06:07;95496.34;;;26.17;63.95
46379;BME280;32084;42.254;22.744;2023-09-18T12:08:35;95498.91;;;26.24;60.66
46379;BME280;32084;42.254;22.744;2023-09-18T12:11:04;95504.53;;;26.34;58.38
46379;BME280;32084;42.254;22.744;2023-09-18T12:13:31;95497.72;;;26.37;62.60
46379;BME280;32084;42.254;22.744;2023-09-18T12:16:01;95502.72;;;26.23;60.92
46379;BME280;32084;42.254;22.744;2023-09-18T12:18:27;95494.75;;;26.21;59.11
46379;BME280;32084;42.254;22.744;2023-09-18T12:20:57;95494.53;;;26.06;61.88
46379;BME280;32084;42.254;22.744;2023-09-18T12:23:24;95491.19;;;26.04;60.39
46379;BME280;32084;42.254;22.744;2023-09-18T12:25:56;95490.72;;;26.07;59.01
46379;BME280;32084;42.254;22.744;2023-09-18T12:28:22;95483.22;;;26.19;59.72
46379;BME280;32084;42.254;22.744;2023-09-18T12:30:50;95484.00;;;26.37;57.94
46379;BME280;32084;42.254;22.744;2023-09-18T12:33:22;95487.25;;;26.34;54.98
46379;BME280;32084;42.254;22.744;2023-09-18T12:35:49;95475.75;;;26.15;55.39
46379;BME280;32084;42.254;22.744;2023-09-18T12:38:15;95467.94;;;26.06;58.49
46379;BME280;32084;42.254;22.744;2023-09-18T12:40:42;95465.03;;;26.13;60.86
46379;BME280;32084;42.254;22.744;2023-09-18T12:43:10;95472.81;;;26.21;60.88
46379;BME280;32084;42.254;22.744;2023-09-18T12:45:36;95467.09;;;26.23;58.62
46379;BME280;32084;42.254;22.744;2023-09-18T12:48:02;95466.53;;;26.21;58.25
46379;BME280;32084;42.254;22.744;2023-09-18T12:50:29;95468.50;;;26.25;60.14
46379;BME280;32084;42.254;22.744;2023-09-18T12:55:36;95467.56;;;26.37;59.02
46379;BME280;32084;42.254;22.744;2023-09-18T12:58:03;95462.75;;;26.27;56.68
46379;BME280;32084;42.254;22.744;2023-09-18T13:00:34;95452.00;;;26.20;57.01